Portada
METAR-TAF:

METAR-TAF

Aeropuertos :

Alhucemas, Marruecos

Aeropuerto Cherif Al Idrissi

latitud: 35-11N, longitud: 003-51W, altitud: 27 m

Observación

El informe se hizo hace 52 minutos, a las 21:00 UTC
Viento 4 kt del sur
Temperatura 11°C
Humedad 94%
Presión 1017 hPa
Visibilidad 10 km o más
sin nubes por debajo de 1500 m y sin presencia de cumulonimbus.

METAR: GMTA 222100Z 18004KT CAVOK 11/10 Q1017 NOSIG

Hora: 21:52 (21:52 UTC)

Pronóstico

El informe se hizo hace 4 horas y 52 minutos, a las 17:00 UTC
Pronóstico válido del 22 a las 18 UTC al 23 a las 24 UTC
Viento 5 kt del norte-noreste
Visibilidad 10 km o más
sin nubes por debajo de 1500 m y sin presencia de cumulonimbus.
Evolucionando progresivamente
del 22 a las 19 UTC al 22 a las 23 UTC
Viento 8 kt del sur

TAF: GMTA 221700Z 2218/2324 03005KT CAVOK BECMG 2219/2223 17008KT

Observaciones y pronósticos meteorológicos de más de 4000 aeropuertos (mensajes METAR y TAF).

Los puntos amarillos y rojos representan las estaciones disponibles.

Ponga el ratón en el punto deseado para ver el nombre de la estación.

Haga clic para ver las observaciones y los pronósticos meteorológicos.

Para cambiar el mapa : haga clic en los botones verdes con una cruz de color negro para hacer un zoom, en el botón verde con un guión para alejar o en las flechas verdes para mapas adyacentes.


METAR-TAF: